Main page
METAR-TAF:

METAR-TAF

Airports :

Ilam Airport

Ilam, Iran

latitude: 33-35-09N, longitude: 046-24-20E, elevation: 1334 m

Current weather observation

The report was made 41 minutes ago, at 01:00 UTC
Wind 4 kt from the East/Southeast
Temperature 1°C
Humidity 86%
Pressure 1022 hPa
Visibility: 8000 m

METAR: OICI 210100Z 11004KT 8000 NSC 01/M01 Q1022 A3018

Time: 05:11 (01:41 UTC)

Forecast

The report was made 2 hours and 41 minutes ago, at 23:00 UTC
Forecast valid from 21 at 00 UTC to 22 at 06 UTC
Wind 8 kt from the Southwest
Visibility: 7000 m
Few clouds at a height of 3500 ft
Temporary
from 21 at 00 UTC to 21 at 04 UTC
Visibility: 4000 m
mist
Probability 40% :
Temporary
from 21 at 09 UTC to 21 at 15 UTC
Wind 16 kt from the West
Few clouds at a height of 3500 ft, Towering cumulus.
Scattered clouds at a height of 4000 ft

TAF: OICI 202300Z 2100/2206 22008KT 7000 FEW035 TEMPO 2100/2104 4000 BR PROB40 TEMPO 2109/2115 27016KT FEW035TCU SCT040

Weather observations and forecasts of more than 4000 airports (METAR and TAF reports).

The available stations are represented by yellow and red dots on the map.

Hover mouse over dot to see the name of the station.

Then click to see weather observations and forecasts.

To change the map : click on the green buttons with a black cross to zoom in, on the green button with a dash to zoom out, or on the green arrows for adjacent maps.


METAR-TAF: